Time;durP1;ratioP1;P1;durP2;ratioP2;P2;SDS_P1;SDS_P2;PMS_P1;PMS_P2;Temp;Humidity;BMP_temperature;BMP_pressure;BME280_temperature;BME280_humidity;BME280_pressure;Samples;Min_cycle;Max_cycle;Signal;HPM_P1;HPM_P2
2023/01/02 00:01:25;;;;;;;4.30;2.70;;;;;;;11.84;100.00;101377.23;1741232;81;20999;-94
2023/01/02 00:04:12;;;;;;;5.12;2.62;;;;;;;11.88;100.00;101386.31;1748239;80;21006;-94
2023/01/02 00:06:57;;;;;;;5.30;2.65;;;;;;;11.91;100.00;101391.26;1746393;80;21702;-93
2023/01/02 00:09:42;;;;;;;3.70;2.85;;;;;;;11.87;100.00;101388.76;1740139;80;21029;-93
2023/01/02 00:12:28;;;;;;;4.92;2.80;;;;;;;11.84;100.00;101380.50;1716934;80;21520;-93
2023/01/02 00:15:13;;;;;;;6.60;2.70;;;;;;;11.88;100.00;101395.35;1753743;78;21053;-93
2023/01/02 00:17:58;;;;;;;5.28;2.92;;;;;;;11.88;100.00;101398.09;1721997;80;21056;-94
2023/01/02 00:20:43;;;;;;;3.62;2.67;;;;;;;11.87;100.00;101400.56;1748200;80;21006;-94
2023/01/02 00:23:28;;;;;;;3.47;2.60;;;;;;;11.79;100.00;101405.97;1746530;80;21013;-94
2023/01/02 00:26:12;;;;;;;5.10;2.20;;;;;;;11.80;100.00;101415.81;1764550;79;21040;-94
2023/01/02 00:28:57;;;;;;;5.10;2.87;;;;;;;11.80;100.00;101412.26;1760761;80;21402;-93
2023/01/02 00:31:42;;;;;;;4.30;2.70;;;;;;;11.76;100.00;101409.20;1721806;80;21132;-94
2023/01/02 00:34:26;;;;;;;3.75;2.83;;;;;;;11.75;100.00;101408.94;1740004;80;21412;-93
2023/01/02 00:37:11;;;;;;;4.42;2.33;;;;;;;11.76;100.00;101405.65;1747277;80;21053;-92
2023/01/02 00:39:56;;;;;;;5.40;3.00;;;;;;;11.75;100.00;101412.23;1723217;81;21755;-93
2023/01/02 00:42:41;;;;;;;6.97;3.05;;;;;;;11.67;100.00;101416.80;1767538;80;20982;-93
2023/01/02 00:45:26;;;;;;;6.15;2.58;;;;;;;11.69;100.00;101411.34;1764543;78;21081;-93
2023/01/02 00:48:11;;;;;;;3.95;2.60;;;;;;;11.58;100.00;101412.38;1733112;81;20966;-93
2023/01/02 00:50:56;;;;;;;3.98;3.02;;;;;;;11.58;100.00;101413.75;1756522;80;21047;-92
2023/01/02 00:53:41;;;;;;;7.85;2.80;;;;;;;11.56;100.00;101409.89;1749670;81;20973;-93
2023/01/02 00:56:26;;;;;;;5.67;3.22;;;;;;;11.57;100.00;101410.19;1768550;79;21520;-93
2023/01/02 00:59:10;;;;;;;3.25;2.52;;;;;;;11.48;100.00;101405.47;1725577;81;21062;-93
2023/01/02 01:01:56;;;;;;;5.10;2.70;;;;;;;11.36;100.00;101402.90;1732600;81;21054;-92
2023/01/02 01:04:40;;;;;;;6.33;3.30;;;;;;;11.33;100.00;101408.36;1740336;81;21061;-92
2023/01/02 01:07:25;;;;;;;6.17;3.00;;;;;;;11.37;100.00;101412.75;1763323;79;21060;-94
2023/01/02 01:10:10;;;;;;;5.72;3.02;;;;;;;11.29;100.00;101408.58;1718362;81;21070;-93
2023/01/02 01:12:55;;;;;;;4.17;2.70;;;;;;;11.22;100.00;101413.44;1760065;80;21053;-95
2023/01/02 01:15:41;;;;;;;4.37;2.45;;;;;;;11.23;100.00;101411.55;1754238;80;20957;-93
2023/01/02 01:18:26;;;;;;;3.58;2.75;;;;;;;11.24;100.00;101414.02;1735354;80;21351;-93
2023/01/02 01:21:16;;;;;;;5.00;2.62;;;;;;;11.19;100.00;101416.70;1758793;80;20997;-92
2023/01/02 01:24:01;;;;;;;5.35;2.85;;;;;;;11.18;100.00;101406.31;1764675;80;20986;-94
2023/01/02 01:26:46;;;;;;;5.50;3.00;;;;;;;11.15;100.00;101405.98;1781671;80;21492;-92
2023/01/02 01:29:30;;;;;;;4.25;2.75;;;;;;;11.16;100.00;101398.91;1741321;80;20972;-91
2023/01/02 01:32:15;;;;;;;4.90;2.62;;;;;;;11.16;100.00;101398.91;1730412;80;21005;-93
2023/01/02 01:35:00;;;;;;;4.00;2.77;;;;;;;11.15;100.00;101397.27;1768506;80;20970;-92
2023/01/02 01:37:45;;;;;;;4.37;2.55;;;;;;;11.16;100.00;101387.14;1727760;80;21025;-93
2023/01/02 01:40:38;;;;;;;3.98;2.80;;;;;;;11.21;100.00;101379.52;1728989;81;21452;-93
2023/01/02 01:43:45;;;;;;;5.08;2.92;;;;;;;11.26;100.00;101385.03;1758995;80;20977;-92
2023/01/02 01:46:42;;;;;;;7.08;2.72;;;;;;;11.31;100.00;101381.79;1746339;81;21500;-92
2023/01/02 01:49:28;;;;;;;5.72;2.87;;;;;;;11.34;100.00;101384.00;1754264;80;21515;-93
2023/01/02 01:52:16;;;;;;;5.83;2.75;;;;;;;11.35;100.00;101384.81;1762081;79;21477;-93
2023/01/02 01:55:16;;;;;;;5.37;2.72;;;;;;;11.40;100.00;101391.17;1752252;81;21422;-91
2023/01/02 01:58:07;;;;;;;5.05;2.83;;;;;;;11.34;100.00;101391.39;1736875;81;21045;-92
2023/01/02 02:00:54;;;;;;;3.15;2.47;;;;;;;11.36;100.00;101375.54;1734134;80;21041;-93
2023/01/02 02:03:39;;;;;;;5.85;2.58;;;;;;;11.38;100.00;101377.47;1745411;80;21413;-93
2023/01/02 02:06:24;;;;;;;5.10;2.83;;;;;;;11.37;100.00;101377.17;1697355;83;21022;-93
2023/01/02 02:09:14;;;;;;;5.20;2.58;;;;;;;11.35;100.00;101376.61;1723086;80;21470;-93
2023/01/02 02:11:59;;;;;;;4.55;3.00;;;;;;;11.37;100.00;101380.76;1754146;80;21045;-93
2023/01/02 02:14:44;;;;;;;4.55;2.83;;;;;;;11.36;100.00;101380.46;1757282;80;21089;-92
2023/01/02 02:18:06;;;;;;;6.00;2.65;;;;;;;11.32;100.00;101390.81;1712151;81;21077;-93
2023/01/02 02:21:11;;;;;;;6.05;3.25;;;;;;;11.32;100.00;101379.87;1752471;80;21053;-93
2023/01/02 02:24:26;;;;;;;4.22;2.62;;;;;;;11.35;100.00;101391.14;1751840;80;21052;-95
2023/01/02 02:27:47;;;;;;;5.17;2.85;;;;;;;11.35;100.00;101382.92;1751634;80;21049;-94
2023/01/02 02:30:43;;;;;;;5.05;2.90;;;;;;;11.36;100.00;101383.75;1760392;80;21653;-94
2023/01/02 02:34:01;;;;;;;4.15;2.55;;;;;;;11.31;100.00;101391.92;1761148;80;20997;-93
2023/01/02 02:37:13;;;;;;;4.28;2.37;;;;;;;11.27;100.00;101388.86;1731586;81;21036;-93
2023/01/02 02:40:18;;;;;;;4.43;2.37;;;;;;;11.30;100.00;101382.04;1719610;81;21133;-93
2023/01/02 02:43:32;;;;;;;5.22;3.08;;;;;;;11.34;100.00;101383.17;1696835;80;21241;-92
2023/01/02 02:46:48;;;;;;;3.83;2.47;;;;;;;11.36;100.00;101389.22;1716767;82;21054;-92
2023/01/02 02:49:49;;;;;;;3.27;2.42;;;;;;;11.34;100.00;101402.33;1712413;81;21048;-94
2023/01/02 02:52:50;;;;;;;6.75;2.62;;;;;;;11.28;100.00;101400.11;1734690;81;21075;-92
2023/01/02 02:55:51;;;;;;;4.53;2.60;;;;;;;11.23;100.00;101400.61;1753271;81;21041;-93
2023/01/02 02:58:36;;;;;;;5.12;2.83;;;;;;;11.07;100.00;101404.55;1728022;81;21439;-92
2023/01/02 03:01:28;;;;;;;7.20;2.83;;;;;;;11.01;100.00;101408.34;1731967;81;21064;-93
2023/01/02 03:04:18;;;;;;;4.20;3.00;;;;;;;11.07;100.00;101421.52;1739151;80;21616;-95
2023/01/02 03:07:29;;;;;;;5.22;2.70;;;;;;;11.04;100.00;101417.94;1743073;79;21052;-93
2023/01/02 03:10:30;;;;;;;4.25;2.62;;;;;;;11.01;100.00;101435.69;1731764;81;21061;-92
2023/01/02 03:13:56;;;;;;;5.25;2.83;;;;;;;11.03;100.00;101433.53;1745276;80;21057;-93
2023/01/02 03:16:42;;;;;;;5.20;2.70;;;;;;;11.02;100.00;101442.80;1752458;81;21603;-93
2023/01/02 03:19:37;;;;;;;5.80;2.62;;;;;;;10.86;100.00;101448.66;1755350;80;21536;-94
2023/01/02 03:22:27;;;;;;;5.45;2.50;;;;;;;10.79;100.00;101454.05;1761245;79;21028;-94
2023/01/02 03:25:11;;;;;;;6.17;3.10;;;;;;;10.71;100.00;101457.52;1730658;81;21040;-94
2023/01/02 03:27:56;;;;;;;3.87;2.98;;;;;;;10.60;100.00;101452.18;1705469;81;21078;-93
2023/01/02 03:30:41;;;;;;;5.25;2.62;;;;;;;10.57;100.00;101462.27;1737933;81;21025;-93
2023/01/02 03:33:29;;;;;;;5.30;2.77;;;;;;;10.51;100.00;101464.11;1716971;80;21037;-91
2023/01/02 03:36:18;;;;;;;5.08;2.75;;;;;;;10.48;100.00;101461.87;1743667;81;21507;-93
2023/01/02 03:39:17;;;;;;;4.70;2.67;;;;;;;10.47;100.00;101468.42;1770202;80;21092;-91
2023/01/02 03:42:06;;;;;;;4.78;2.77;;;;;;;10.46;100.00;101466.75;1757282;80;20997;-92
2023/01/02 03:45:09;;;;;;;3.98;2.40;;;;;;;10.44;100.00;101473.04;1717957;81;21090;-92
2023/01/02 03:48:28;;;;;;;5.62;2.98;;;;;;;10.50;100.00;101478.84;1694748;81;21457;-92
2023/01/02 03:51:14;;;;;;;12.78;6.55;;;;;;;10.45;100.00;101497.36;1747869;80;21033;-92
2023/01/02 03:53:59;;;;;;;5.53;3.75;;;;;;;10.38;100.00;101496.71;1731418;81;21685;-91
2023/01/02 03:57:08;;;;;;;4.55;2.62;;;;;;;10.40;100.00;101489.64;1722065;81;21442;-91
2023/01/02 04:00:05;;;;;;;6.80;2.72;;;;;;;10.44;100.00;101501.73;1690032;81;21524;-92
2023/01/02 04:02:56;;;;;;;5.42;2.62;;;;;;;10.45;100.00;101507.47;1755734;80;21048;-92
2023/01/02 04:06:06;;;;;;;5.62;3.22;;;;;;;10.35;100.00;101505.97;1709131;81;21018;-92
2023/01/02 04:09:01;;;;;;;4.17;3.17;;;;;;;10.28;100.00;101515.16;1740974;80;21060;-93
2023/01/02 04:11:49;;;;;;;5.28;2.77;;;;;;;10.27;100.00;101523.05;1762361;80;21014;-92
2023/01/02 04:14:43;;;;;;;7.70;3.00;;;;;;;10.36;100.00;101525.37;1729980;81;21469;-91
2023/01/02 04:17:30;;;;;;;5.75;3.17;;;;;;;10.28;100.00;101530.72;1728316;81;21006;-92
2023/01/02 04:20:20;;;;;;;6.35;2.80;;;;;;;10.23;100.00;101534.72;1716726;81;21065;-90
2023/01/02 04:23:12;;;;;;;7.58;3.15;;;;;;;10.11;100.00;101531.56;1723619;81;21025;-92
2023/01/02 04:26:03;;;;;;;5.83;2.70;;;;;;;10.08;100.00;101527.12;1773828;80;21001;-92
2023/01/02 04:28:48;;;;;;;5.10;3.17;;;;;;;10.00;100.00;101530.28;1746601;80;20990;-91
2023/01/02 04:31:47;;;;;;;7.10;3.08;;;;;;;10.03;100.00;101533.88;1710798;82;21026;-92
2023/01/02 04:34:33;;;;;;;9.20;3.35;;;;;;;10.03;100.00;101535.23;1741296;80;21074;-92
2023/01/02 04:37:34;;;;;;;6.33;2.80;;;;;;;9.96;100.00;101529.11;1738752;80;21070;-92
2023/01/02 04:40:28;;;;;;;7.28;2.60;;;;;;;9.94;100.00;101538.09;1701465;82;21002;-93
2023/01/02 04:43:19;;;;;;;6.58;3.22;;;;;;;9.98;100.00;101537.89;1716300;81;21073;-92
2023/01/02 04:46:05;;;;;;;4.42;3.10;;;;;;;9.96;100.00;101531.30;1734773;81;20995;-92
2023/01/02 04:48:50;;;;;;;5.40;3.00;;;;;;;9.93;100.00;101539.17;1754738;80;20984;-93
2023/01/02 04:51:35;;;;;;;5.60;2.87;;;;;;;9.93;100.00;101537.81;1735297;80;20989;-92
2023/01/02 04:54:20;;;;;;;3.27;2.80;;;;;;;9.98;100.00;101539.25;1715194;81;21069;-95
2023/01/02 04:57:06;;;;;;;7.50;3.17;;;;;;;9.95;100.00;101543.85;1738799;81;20979;-93
2023/01/02 04:59:51;;;;;;;4.58;2.90;;;;;;;9.94;100.00;101541.67;1735197;81;21045;-92
2023/01/02 05:02:37;;;;;;;5.22;3.10;;;;;;;9.92;100.00;101549.82;1708787;81;21069;-91
2023/01/02 05:05:23;;;;;;;6.15;3.50;;;;;;;9.90;100.00;101552.78;1729455;81;21644;-93
2023/01/02 05:08:09;;;;;;;8.05;3.00;;;;;;;9.85;100.00;101547.24;1741998;80;21004;-91
2023/01/02 05:10:54;;;;;;;7.45;3.47;;;;;;;9.77;100.00;101551.22;1732409;81;21001;-92
2023/01/02 05:13:39;;;;;;;5.60;2.30;;;;;;;9.77;100.00;101562.67;1735351;80;21069;-91
2023/01/02 05:16:23;;;;;;;4.40;2.98;;;;;;;9.76;100.00;101567.83;1739043;81;21084;-93
2023/01/02 05:19:08;;;;;;;8.03;4.85;;;;;;;9.79;100.00;101573.64;1705008;82;20903;-93
2023/01/02 05:24:56;;;;;;;4.70;3.08;;;;;;;9.72;100.00;101583.88;1742440;80;21542;-93
2023/01/02 05:27:41;;;;;;;5.80;3.27;;;;;;;9.68;100.00;101593.63;1727783;81;21065;-93
2023/01/02 05:30:25;;;;;;;4.70;3.20;;;;;;;9.67;100.00;101591.44;1754739;80;20993;-94
2023/01/02 05:33:11;;;;;;;7.28;3.72;;;;;;;9.66;100.00;101590.31;1739554;81;21057;-94
2023/01/02 05:35:55;;;;;;;5.85;3.47;;;;;;;9.62;100.00;101591.89;1711209;81;21476;-95
2023/01/02 05:38:40;;;;;;;6.78;3.65;;;;;;;9.62;100.00;101597.34;1738912;80;20985;-94
2023/01/02 05:41:24;;;;;;;6.75;4.00;;;;;;;9.61;100.00;101597.04;1739598;80;20974;-93
2023/01/02 05:44:09;;;;;;;7.83;4.30;;;;;;;9.62;100.00;101602.80;1738169;81;20995;-94
2023/01/02 05:46:54;;;;;;;6.85;3.85;;;;;;;9.67;100.00;101600.17;1740330;80;21025;-93
2023/01/02 05:49:38;;;;;;;6.97;3.60;;;;;;;9.67;100.00;101598.27;1733281;80;21390;-93
2023/01/02 05:52:23;;;;;;;4.67;3.00;;;;;;;9.72;100.00;101610.33;1728690;81;21018;-95
2023/01/02 05:55:08;;;;;;;6.78;3.65;;;;;;;9.75;100.00;101617.50;1731272;80;21080;-95
2023/01/02 05:57:58;;;;;;;6.22;3.52;;;;;;;9.87;100.00;101622.36;1731857;80;21046;-95
2023/01/02 06:00:43;;;;;;;6.25;3.52;;;;;;;9.89;100.00;101622.95;1747848;80;21119;-93
2023/01/02 06:03:28;;;;;;;6.83;3.60;;;;;;;9.85;100.00;101627.23;1728165;80;21450;-95
2023/01/02 06:06:12;;;;;;;7.95;3.40;;;;;;;9.83;100.00;101634.84;1742989;80;21383;-94
2023/01/02 06:08:59;;;;;;;5.30;2.95;;;;;;;9.86;100.00;101627.52;1739636;80;20991;-94
2023/01/02 06:11:44;;;;;;;4.72;2.60;;;;;;;9.89;100.00;101628.41;1740008;81;21121;-92
2023/01/02 06:14:28;;;;;;;5.30;3.40;;;;;;;9.92;100.00;101635.28;1690384;81;21038;-93
2023/01/02 06:17:15;;;;;;;4.65;3.30;;;;;;;9.90;100.00;101639.61;1718327;81;20974;-94
2023/01/02 06:19:59;;;;;;;6.40;3.50;;;;;;;9.89;100.00;101635.23;1693781;82;21075;-94
2023/01/02 06:22:44;;;;;;;5.37;3.50;;;;;;;9.94;100.00;101635.87;1752383;80;21001;-91
2023/01/02 06:25:33;;;;;;;7.50;3.92;;;;;;;9.98;100.00;101633.45;1735472;80;21845;-93
2023/01/02 06:28:18;;;;;;;5.92;3.52;;;;;;;10.04;100.00;101643.37;1745469;80;21033;-93
2023/01/02 06:31:05;;;;;;;8.83;3.62;;;;;;;10.10;100.00;101646.51;1744778;80;21006;-92
2023/01/02 06:33:58;;;;;;;7.20;3.67;;;;;;;10.13;100.00;101652.83;1744770;80;20993;-94
2023/01/02 06:36:43;;;;;;;6.08;3.90;;;;;;;10.16;100.00;101654.23;1730583;81;21005;-92
2023/01/02 06:39:28;;;;;;;8.00;3.37;;;;;;;10.18;100.00;101654.28;1680977;84;21061;-92
2023/01/02 06:42:12;;;;;;;9.93;4.25;;;;;;;10.15;100.00;101654.78;1732574;81;21093;-91
2023/01/02 06:44:57;;;;;;;9.98;4.60;;;;;;;10.10;100.00;101656.89;1729100;81;21513;-93
2023/01/02 06:47:44;;;;;;;9.30;5.15;;;;;;;10.14;100.00;101657.23;1721771;82;21429;-94
2023/01/02 06:50:28;;;;;;;12.90;5.20;;;;;;;10.13;100.00;101661.02;1762389;79;21235;-91
2023/01/02 06:53:13;;;;;;;9.38;4.70;;;;;;;10.13;100.00;101663.22;1737019;81;21110;-93
2023/01/02 06:55:58;;;;;;;10.72;5.40;;;;;;;10.19;100.00;101668.25;1739341;81;21062;-94
2023/01/02 06:58:43;;;;;;;7.35;4.75;;;;;;;10.25;100.00;101672.70;1726932;81;21404;-94
2023/01/02 07:01:28;;;;;;;8.98;5.00;;;;;;;10.30;100.00;101686.48;1744737;81;21081;-92
2023/01/02 07:04:16;;;;;;;11.40;4.58;;;;;;;10.37;100.00;101689.61;1741180;80;20998;-93
2023/01/02 07:07:01;;;;;;;10.25;4.83;;;;;;;10.43;100.00;101684.50;1749580;80;21532;-93
2023/01/02 07:09:47;;;;;;;9.08;4.35;;;;;;;10.51;100.00;101686.84;1726918;80;21038;-93
2023/01/02 07:12:35;;;;;;;8.10;4.40;;;;;;;10.49;100.00;101686.26;1738085;80;21018;-92
2023/01/02 07:15:20;;;;;;;6.37;3.62;;;;;;;10.52;100.00;101692.04;1752436;80;20990;-93
2023/01/02 07:18:04;;;;;;;6.35;3.70;;;;;;;10.58;100.00;101693.48;1719391;80;20894;-92
2023/01/02 07:20:54;;;;;;;6.47;3.80;;;;;;;10.61;100.00;101682.90;1746546;80;21009;-93
2023/01/02 07:23:40;;;;;;;6.75;3.87;;;;;;;10.56;100.00;101693.76;1726585;80;21018;-92
2023/01/02 07:26:25;;;;;;;6.67;4.22;;;;;;;10.66;100.00;101685.71;1726108;80;21073;-93
2023/01/02 07:29:10;;;;;;;6.10;3.30;;;;;;;10.72;100.00;101687.43;1759232;80;21013;-93
2023/01/02 07:31:55;;;;;;;5.97;3.58;;;;;;;10.79;100.00;101694.10;1742393;81;21072;-95
2023/01/02 07:34:40;;;;;;;8.90;4.17;;;;;;;10.82;100.00;101696.88;1728218;81;21022;-94
2023/01/02 07:37:25;;;;;;;5.97;3.30;;;;;;;10.85;100.00;101699.09;1720745;81;21025;-93
2023/01/02 07:40:11;;;;;;;7.83;3.67;;;;;;;10.87;100.00;101692.84;1691228;81;21059;-93
2023/01/02 07:42:55;;;;;;;7.87;3.33;;;;;;;10.87;100.00;101691.48;1736245;80;21058;-94
2023/01/02 07:45:41;;;;;;;5.45;3.40;;;;;;;10.92;100.00;101689.64;1759763;79;21030;-93
2023/01/02 07:48:29;;;;;;;5.85;3.47;;;;;;;10.91;100.00;101695.38;1725288;81;21076;-92
2023/01/02 07:51:14;;;;;;;5.45;3.40;;;;;;;10.95;100.00;101700.61;1760538;80;20989;-94
2023/01/02 07:53:59;;;;;;;7.67;3.83;;;;;;;10.95;100.00;101705.56;1710164;81;21044;-93
2023/01/02 07:56:44;;;;;;;5.20;3.33;;;;;;;10.92;100.00;101710.15;1688685;80;21014;-91
2023/01/02 07:59:28;;;;;;;5.00;3.40;;;;;;;10.96;100.00;101715.96;1724346;80;21596;-92
2023/01/02 08:02:15;;;;;;;7.62;3.42;;;;;;;10.93;100.00;101711.00;1752081;80;20998;-93
2023/01/02 08:04:59;;;;;;;7.33;3.55;;;;;;;10.92;100.00;101718.90;1749910;80;21254;-93
2023/01/02 08:07:45;;;;;;;7.20;3.47;;;;;;;10.97;100.00;101720.34;1742096;80;21073;-93
2023/01/02 08:10:29;;;;;;;6.87;3.25;;;;;;;11.07;100.00;101725.95;1751814;80;21002;-92
2023/01/02 08:13:14;;;;;;;9.43;4.08;;;;;;;11.10;100.00;101714.53;1721896;82;20974;-92
2023/01/02 08:16:04;;;;;;;7.53;3.95;;;;;;;11.09;100.00;101712.86;1750568;80;21044;-92
2023/01/02 08:18:53;;;;;;;4.90;3.42;;;;;;;11.11;100.00;101711.25;1728995;81;20991;-92
2023/01/02 08:21:38;;;;;;;7.90;4.05;;;;;;;11.13;100.00;101724.14;1687106;82;21341;-91
2023/01/02 08:24:24;;;;;;;7.03;4.08;;;;;;;11.15;100.00;101722.81;1748957;80;21442;-93
2023/01/02 08:27:09;;;;;;;6.87;4.15;;;;;;;11.23;100.00;101723.45;1720086;81;21046;-93
2023/01/02 08:29:53;;;;;;;6.92;4.17;;;;;;;11.36;100.00;101717.60;1652782;84;21025;-92
2023/01/02 08:32:38;;;;;;;7.30;4.45;;;;;;;11.44;100.00;101719.06;1721604;81;21048;-95
2023/01/02 08:35:30;;;;;;;7.90;3.85;;;;;;;11.52;100.00;101722.72;1711276;82;21049;-95
2023/01/02 08:38:22;;;;;;;6.95;3.92;;;;;;;11.48;100.00;101715.57;1727257;81;20989;-92
2023/01/02 08:41:09;;;;;;;7.05;3.72;;;;;;;11.59;100.00;101713.23;1709322;83;21030;-91
2023/01/02 08:43:53;;;;;;;5.72;3.80;;;;;;;11.74;100.00;101714.50;1710177;81;21496;-91
2023/01/02 08:46:41;;;;;;;6.78;4.42;;;;;;;11.79;100.00;101709.92;1710214;81;21110;-92
2023/01/02 08:49:26;;;;;;;8.88;4.08;;;;;;;11.81;100.00;101709.11;1679160;85;21092;-90
2023/01/02 08:52:10;;;;;;;5.65;3.67;;;;;;;11.91;100.00;101707.60;1702795;82;20978;-91
2023/01/02 08:57:58;;;;;;;7.50;3.62;;;;;;;12.00;100.00;101707.43;1710682;81;21041;-93
2023/01/02 09:00:42;;;;;;;7.58;4.10;;;;;;;12.13;100.00;101702.89;1698102;81;21493;-92
2023/01/02 09:03:27;;;;;;;6.20;3.70;;;;;;;12.18;100.00;101704.31;1739069;81;21013;-93
2023/01/02 09:06:12;;;;;;;10.30;4.35;;;;;;;12.16;100.00;101710.59;1755684;80;20972;-92
2023/01/02 09:09:00;;;;;;;7.45;4.37;;;;;;;12.26;100.00;101703.86;1717084;81;21005;-92
2023/01/02 09:11:51;;;;;;;8.45;4.20;;;;;;;12.27;100.00;101695.09;1707084;83;21025;-91
2023/01/02 09:14:38;;;;;;;8.30;4.08;;;;;;;12.37;100.00;101702.02;1737317;81;20990;-92
2023/01/02 09:17:22;;;;;;;7.17;4.00;;;;;;;12.34;100.00;101705.30;1733017;82;20977;-93
2023/01/02 09:20:08;;;;;;;7.53;3.67;;;;;;;12.33;100.00;101700.88;1716612;83;20983;-93
2023/01/02 09:22:53;;;;;;;8.08;4.12;;;;;;;12.45;100.00;101698.80;1676143;82;21021;-92
2023/01/02 09:25:37;;;;;;;6.97;4.17;;;;;;;12.53;100.00;101702.14;1722126;81;21021;-92
2023/01/02 09:28:22;;;;;;;7.15;4.15;;;;;;;12.57;100.00;101699.17;1727301;82;21062;-92
2023/01/02 09:31:15;;;;;;;8.43;4.25;;;;;;;12.51;100.00;101699.66;1738105;81;20986;-92
2023/01/02 09:34:02;;;;;;;9.55;4.30;;;;;;;12.52;100.00;101695.02;1754726;79;21006;-92
2023/01/02 09:36:46;;;;;;;8.75;3.83;;;;;;;12.49;100.00;101703.23;1731040;81;21013;-94
2023/01/02 09:39:31;;;;;;;7.50;4.28;;;;;;;12.52;100.00;101705.98;1760563;79;21010;-93
2023/01/02 09:42:16;;;;;;;7.25;3.77;;;;;;;12.54;100.00;101703.82;1766394;80;21182;-93
2023/01/02 09:45:02;;;;;;;8.15;4.67;;;;;;;12.55;100.00;101702.72;1744346;80;21004;-92
2023/01/02 09:47:47;;;;;;;12.30;5.03;;;;;;;12.55;100.00;101701.34;1722244;81;21562;-91
2023/01/02 09:50:32;;;;;;;6.40;4.00;;;;;;;12.64;100.00;101695.67;1735483;80;21170;-93
2023/01/02 09:53:18;;;;;;;8.73;4.05;;;;;;;12.56;100.00;101685.16;1756781;81;21033;-94
2023/01/02 09:56:11;;;;;;;6.78;3.70;;;;;;;12.57;100.00;101684.91;1736484;81;21497;-93
2023/01/02 09:59:13;;;;;;;6.83;3.55;;;;;;;12.57;100.00;101686.28;1747935;81;21041;-94
2023/01/02 10:02:16;;;;;;;6.03;3.83;;;;;;;12.55;100.00;101683.52;1736450;81;21050;-92
2023/01/02 10:05:18;;;;;;;10.32;3.87;;;;;;;12.62;100.00;101687.69;1756252;80;21507;-92
2023/01/02 10:08:37;;;;;;;7.95;4.30;;;;;;;12.68;100.00;101680.32;1792135;78;20967;-94
2023/01/02 10:11:54;;;;;;;8.65;4.22;;;;;;;12.64;100.00;101676.47;1767140;80;21033;-93
2023/01/02 10:14:58;;;;;;;9.73;4.75;;;;;;;12.76;100.00;101672.98;1741652;81;20990;-94
2023/01/02 10:17:51;;;;;;;8.75;3.80;;;;;;;12.79;100.00;101671.08;1754549;81;20991;-93
2023/01/02 10:20:39;;;;;;;8.83;4.07;;;;;;;12.79;100.00;101664.23;1739821;81;21013;-96
2023/01/02 10:23:28;;;;;;;9.80;4.65;;;;;;;12.81;100.00;101668.91;1806844;78;21314;-94
2023/01/02 10:26:18;;;;;;;7.92;4.40;;;;;;;12.88;100.00;101670.87;1743342;80;21457;-92
2023/01/02 10:29:26;;;;;;;8.28;4.83;;;;;;;12.91;100.00;101671.70;1749061;80;21053;-92
2023/01/02 10:32:18;;;;;;;9.78;4.53;;;;;;;12.79;100.00;101675.20;1726704;80;20977;-93
2023/01/02 10:35:18;;;;;;;7.17;4.00;;;;;;;12.83;100.00;101670.84;1744545;80;21060;-93
2023/01/02 10:38:03;;;;;;;10.23;4.22;;;;;;;12.86;100.00;101669.49;1751103;80;21014;-91
2023/01/02 10:40:49;;;;;;;7.33;4.42;;;;;;;12.92;100.00;101676.64;1724123;83;21016;-93
2023/01/02 10:43:35;;;;;;;8.43;4.58;;;;;;;12.95;100.00;101671.98;1757741;79;20998;-92
2023/01/02 10:46:21;;;;;;;8.05;4.08;;;;;;;12.81;100.00;101667.53;1740450;81;21010;-92
2023/01/02 10:49:08;;;;;;;8.80;4.47;;;;;;;12.85;100.00;101676.05;1754528;80;21048;-92
2023/01/02 10:52:08;;;;;;;7.37;3.85;;;;;;;12.86;100.00;101668.94;1736427;80;21020;-92
2023/01/02 10:55:00;;;;;;;8.48;4.75;;;;;;;12.93;100.00;101665.12;1717147;81;21016;-94
2023/01/02 10:57:50;;;;;;;9.13;4.25;;;;;;;13.06;100.00;101663.29;1736631;81;21532;-94
2023/01/02 11:00:35;;;;;;;8.58;4.50;;;;;;;13.07;100.00;101664.37;1739457;81;21080;-93
2023/01/02 11:03:24;;;;;;;6.92;4.37;;;;;;;13.08;100.00;101662.45;1737384;81;21019;-94
2023/01/02 11:06:23;;;;;;;8.05;4.50;;;;;;;13.11;100.00;101667.43;1740256;80;21458;-93
2023/01/02 11:09:22;;;;;;;9.75;4.60;;;;;;;13.12;100.00;101655.34;1705478;81;21021;-94
2023/01/02 11:12:12;;;;;;;6.08;3.92;;;;;;;13.05;100.00;101656.95;1738286;81;21007;-92
2023/01/02 11:15:11;;;;;;;8.88;4.03;;;;;;;13.15;100.00;101656.73;1722776;81;21041;-91
2023/01/02 11:17:56;;;;;;;6.95;4.33;;;;;;;13.19;100.00;101652.37;1698627;82;21499;-92
2023/01/02 11:20:43;;;;;;;6.97;4.10;;;;;;;13.25;100.00;101650.77;1697976;82;21504;-91
2023/01/02 11:23:35;;;;;;;10.30;5.25;;;;;;;13.32;100.00;101651.34;1694906;82;21494;-92
2023/01/02 11:26:22;;;;;;;8.70;4.20;;;;;;;13.31;100.00;101652.45;1730804;81;20972;-93
2023/01/02 11:29:14;;;;;;;7.85;4.70;;;;;;;13.32;100.00;101653.27;1710637;83;20972;-92
2023/01/02 11:32:00;;;;;;;9.63;4.47;;;;;;;13.34;100.00;101646.41;1731811;81;27048;-92
2023/01/02 11:35:26;;;;;;;8.78;4.83;;;;;;;13.32;100.00;101649.97;1729231;81;21034;-94
2023/01/02 11:38:18;;;;;;;8.95;4.78;;;;;;;13.33;100.00;101642.03;1675498;81;21236;-91
2023/01/02 11:41:03;;;;;;;11.30;5.10;;;;;;;13.36;100.00;101642.59;1673119;83;21022;-93
2023/01/02 11:43:56;;;;;;;9.45;5.37;;;;;;;13.42;100.00;101637.38;1623927;87;21032;-91
2023/01/02 11:46:43;;;;;;;8.63;4.62;;;;;;;13.46;100.00;101627.52;1656793;83;21016;-92
2023/01/02 11:49:39;;;;;;;12.37;5.25;;;;;;;13.52;100.00;101626.42;1683786;82;21485;-94
2023/01/02 11:52:36;;;;;;;11.93;5.45;;;;;;;13.49;100.00;101632.47;1684083;82;21033;-92
2023/01/02 11:55:55;;;;;;;10.88;4.92;;;;;;;13.46;100.00;101633.02;1684012;83;21125;-92
2023/01/02 11:59:18;;;;;;;8.28;4.67;;;;;;;13.42;100.00;101634.64;1682164;84;21006;-93
2023/01/02 12:02:22;;;;;;;10.72;5.22;;;;;;;13.44;100.00;101631.91;1661435;84;21020;-93
2023/01/02 12:05:14;;;;;;;9.38;5.08;;;;;;;13.47;100.00;101633.28;1638629;85;21003;-92
2023/01/02 12:08:13;;;;;;;9.20;4.70;;;;;;;13.40;100.00;101635.45;1701297;83;21096;-93
2023/01/02 12:11:29;;;;;;;9.45;4.78;;;;;;;13.45;100.00;101625.86;1658368;83;21011;-92
2023/01/02 12:14:32;;;;;;;11.30;5.17;;;;;;;13.48;100.00;101628.91;1714376;81;21492;-92
2023/01/02 12:17:24;;;;;;;9.75;5.45;;;;;;;13.50;100.00;101628.61;1713587;83;21493;-92
2023/01/02 12:20:39;;;;;;;8.55;4.85;;;;;;;13.50;100.00;101636.33;1716310;83;21456;-92
2023/01/02 12:23:29;;;;;;;10.55;4.80;;;;;;;13.54;100.00;101631.92;1673041;84;21064;-93
2023/01/02 12:26:20;;;;;;;9.23;5.28;;;;;;;13.54;100.00;101628.36;1678702;84;21515;-93
2023/01/02 12:29:45;;;;;;;9.48;5.30;;;;;;;13.49;100.00;101629.72;1681975;83;21018;-92
2023/01/02 12:32:45;;;;;;;10.30;5.42;;;;;;;13.51;100.00;101627.53;1661782;84;21013;-91
2023/01/02 12:36:10;;;;;;;15.25;7.12;;;;;;;13.46;100.00;101624.78;1678999;84;21006;-93
2023/01/02 12:39:23;;;;;;;14.87;7.12;;;;;;;13.28;100.00;101624.17;1718331;82;21089;-93
2023/01/02 12:42:48;;;;;;;14.73;7.22;;;;;;;13.32;100.00;101623.89;1714597;81;21025;-91
2023/01/02 12:45:48;;;;;;;12.53;5.90;;;;;;;13.28;100.00;101617.31;1679829;83;21512;-92
2023/01/02 12:48:59;;;;;;;10.23;4.67;;;;;;;13.28;100.00;101624.73;1708069;83;21034;-93
2023/01/02 12:52:09;;;;;;;9.63;4.97;;;;;;;13.28;100.00;101621.98;1715027;81;21048;-92
2023/01/02 12:55:36;;;;;;;10.93;5.70;;;;;;;13.11;100.00;101627.64;1713929;81;21033;-93
2023/01/02 12:58:52;;;;;;;8.33;4.85;;;;;;;13.05;100.00;101628.14;1636890;86;21017;-92
2023/01/02 13:02:17;;;;;;;10.48;4.28;;;;;;;13.06;100.00;101627.63;1608183;87;21453;-92
2023/01/02 13:05:09;;;;;;;8.53;4.15;;;;;;;13.12;100.00;101633.39;1707653;81;21001;-90
2023/01/02 13:07:59;;;;;;;8.80;4.22;;;;;;;13.05;100.00;101633.63;1686883;83;20983;-92
2023/01/02 13:10:44;;;;;;;7.12;3.80;;;;;;;13.00;100.00;101634.16;1677802;84;21114;-91
2023/01/02 13:13:33;;;;;;;9.30;4.50;;;;;;;12.83;100.00;101639.30;1704201;82;21072;-92